Buckden, United Kingdom
Current Conditions -  °F | °C
As of 11:20 AM on Thursday 18 Dec 2014 (Local Time) from EGSC Reporting Station
Broken Clouds Broken Clouds  
Wind Chill: 13°   Ceiling: 1500
Heat Index: 13°   Visibility: 6mi
Dew Point: 10°   Wind: 25mph
Humidity: 82%   Direction: 220°SW
Pressure: 29.74"   Gusts: NA
Location:  52.29°N, 0.25°W
Report Text: EGSC 181120Z 22022KT 200V260 9999 BKN015 13/10 Q1007
Loading
Personal Weather Stations






























Interactive Weather Map New forecast layout! Learn more

10-Day Weather Forecast

Advertisements
Track Severe Weather on mobile